AirportContent of METAR report
LYBEMETAR LYBE 180030Z 20002KT CAVOK 18/16 Q1012 NOSIG=
LYBTMETAR LYBT 180030Z 00000KT CAVOK 15/14 Q1012 NOSIG=
LYKVMETAR LYKV 180030Z 35001KT CAVOK 13/13 Q1013 NOSIG=
LYNIMETAR LYNI 180100Z 11004KT CAVOK 15/11 Q1013 NOSIG=
LYVRMETAR LYVR 180030Z VRB01KT CAVOK 12/11 Q1011 NOSIG=
LYUZMETAR LYUZ 180030Z AUTO VRB01KT CAVOK 12/11 Q1016=
LYPGMETAR LYPG 180030Z 34003KT 280V040 CAVOK 22/10 Q1010 NOSIG=
LYTVMETAR LYTV 180030Z 08003KT 050V120 CAVOK 15/13 Q1010=

Data loaded: 2019-07-18 00:56:59 UTC

METAR, TAF, AIRMET, GAMET, SIGMET

Important note: MET information on these web pages are informative and restricted to aeronautical users, must not be used for any commercial purpose, and do not replace flight documentation.